createdAt,value
2023-05-05T00:01:29.185Z,101548.41
2023-05-05T00:03:55.923Z,101523.81
2023-05-05T00:06:22.997Z,101542.91
2023-05-05T00:08:49.608Z,101557.81
2023-05-05T00:11:16.512Z,101552.44
2023-05-05T00:13:43.154Z,101542.06
2023-05-05T00:16:09.812Z,101551.47
2023-05-05T00:18:36.567Z,101551.06
2023-05-05T00:21:04.536Z,101543.88
2023-05-05T00:23:31.187Z,101531.06
2023-05-05T00:25:57.805Z,101549.88
2023-05-05T00:28:24.415Z,101535.19
2023-05-05T00:30:51.234Z,101524.84
2023-05-05T00:33:18.023Z,101535.69
2023-05-05T00:35:44.654Z,101432.38
2023-05-05T00:38:11.323Z,101497.09
2023-05-05T00:40:38.390Z,101520.13
2023-05-05T00:43:05.337Z,101506.25
2023-05-05T00:45:32.114Z,101520.97
2023-05-05T00:48:00.896Z,101520.00
2023-05-05T00:50:30.455Z,101515.06
2023-05-05T00:53:02.839Z,101482.44
2023-05-05T00:55:30.755Z,101517.84
2023-05-05T00:57:58.529Z,101509.16
2023-05-05T01:00:25.994Z,101491.06
2023-05-05T01:02:52.972Z,101494.56
2023-05-05T01:05:22.188Z,101492.03
2023-05-05T01:07:59.302Z,101490.94
2023-05-05T01:10:33.700Z,101473.09
2023-05-05T01:13:05.218Z,101479.84
2023-05-05T01:15:40.554Z,101476.72
2023-05-05T01:18:15.033Z,101483.84
2023-05-05T01:21:03.589Z,101487.25
2023-05-05T01:23:53.378Z,101446.72
2023-05-05T01:26:49.083Z,101480.22
2023-05-05T01:29:38.975Z,101472.38
2023-05-05T01:32:12.896Z,101465.97
2023-05-05T01:34:45.386Z,101450.56
2023-05-05T01:37:18.334Z,101428.00
2023-05-05T01:39:50.935Z,101442.06
2023-05-05T01:42:18.708Z,101440.91
2023-05-05T01:44:47.506Z,101446.66
2023-05-05T01:47:16.891Z,101451.75
2023-05-05T01:49:46.595Z,101459.59
2023-05-05T01:52:15.168Z,101457.38
2023-05-05T01:54:44.103Z,101420.00
2023-05-05T01:57:12.089Z,101461.59
2023-05-05T01:59:39.794Z,101461.84
2023-05-05T02:02:09.273Z,101444.72
2023-05-05T02:04:40.761Z,101468.00
2023-05-05T02:07:08.906Z,101462.09
2023-05-05T02:09:37.615Z,101444.97
2023-05-05T02:12:05.476Z,101446.53
2023-05-05T02:14:34.081Z,101440.41
2023-05-05T02:17:02.066Z,101414.00
2023-05-05T02:19:55.699Z,101406.16
2023-05-05T02:22:22.464Z,101436.31
2023-05-05T02:24:49.646Z,101437.75
2023-05-05T02:27:18.967Z,101460.06
2023-05-05T02:29:52.951Z,101460.78
2023-05-05T02:32:24.083Z,101462.88
2023-05-05T02:34:54.464Z,101455.75
2023-05-05T02:37:24.684Z,101438.50
2023-05-05T02:40:00.462Z,101411.75
2023-05-05T02:42:32.196Z,101403.06
2023-05-05T02:45:02.020Z,101437.75
2023-05-05T02:47:35.654Z,101432.94
2023-05-05T02:50:03.965Z,101441.88
2023-05-05T02:52:31.214Z,101428.63
2023-05-05T02:54:59.029Z,101408.00
2023-05-05T02:57:34.423Z,101417.72
2023-05-05T03:00:10.392Z,101427.38
2023-05-05T03:02:42.974Z,101430.28
2023-05-05T03:05:13.421Z,101430.56
2023-05-05T03:08:02.545Z,101425.75
2023-05-05T03:10:32.028Z,101437.78
2023-05-05T03:13:00.907Z,101446.16
2023-05-05T03:15:35.527Z,101462.66
2023-05-05T03:18:03.985Z,101459.03
2023-05-05T03:20:31.225Z,101457.47
2023-05-05T03:22:58.007Z,101452.88
2023-05-05T03:25:41.796Z,101412.75
2023-05-05T03:28:08.414Z,101439.25
2023-05-05T03:30:35.236Z,101419.00
2023-05-05T03:33:02.087Z,101433.97
2023-05-05T03:35:28.953Z,101442.78
2023-05-05T03:37:58.045Z,101438.09
2023-05-05T03:40:36.215Z,101447.47
2023-05-05T03:43:10.337Z,101469.91
2023-05-05T03:45:36.973Z,101468.59
2023-05-05T03:48:03.750Z,101472.38
2023-05-05T03:50:30.604Z,101486.06
2023-05-05T03:52:57.197Z,101467.25
2023-05-05T03:55:24.542Z,101474.97
2023-05-05T03:57:51.557Z,101499.56
2023-05-05T04:00:18.605Z,101511.97
2023-05-05T04:02:45.420Z,101511.38
2023-05-05T04:05:12.312Z,101476.16
2023-05-05T04:07:38.908Z,101506.81
2023-05-05T04:10:06.885Z,101498.25
2023-05-05T04:12:33.790Z,101517.41
2023-05-05T04:15:00.479Z,101435.66
2023-05-05T04:17:27.062Z,101514.66
2023-05-05T04:19:54.142Z,101526.34
2023-05-05T04:22:20.770Z,101519.13
2023-05-05T04:24:47.612Z,101498.84
2023-05-05T04:27:14.277Z,101510.41
2023-05-05T04:29:41.315Z,101483.66
2023-05-05T04:32:07.915Z,101494.28
2023-05-05T04:34:34.571Z,101495.03
2023-05-05T04:37:01.726Z,101490.47
2023-05-05T04:39:28.428Z,101504.41
2023-05-05T04:41:55.281Z,101488.28
2023-05-05T04:44:21.876Z,101506.88
2023-05-05T04:46:48.494Z,101538.13
2023-05-05T04:49:15.227Z,101527.88
2023-05-05T04:51:42.348Z,101521.25
2023-05-05T04:54:09.087Z,101478.19
2023-05-05T04:56:35.946Z,101502.31
2023-05-05T04:59:02.628Z,101417.72
2023-05-05T05:01:29.379Z,101490.25
2023-05-05T05:03:56.310Z,101487.63
2023-05-05T05:06:23.024Z,101488.47
2023-05-05T05:08:49.597Z,101446.41
2023-05-05T05:11:16.380Z,101482.22
2023-05-05T05:13:43.014Z,101486.91
2023-05-05T05:16:09.813Z,101492.69
2023-05-05T05:18:36.632Z,101500.91
2023-05-05T05:21:03.539Z,101506.44
2023-05-05T05:23:30.685Z,101443.88
2023-05-05T05:25:57.726Z,101521.28
2023-05-05T05:28:24.353Z,101522.72
2023-05-05T05:30:52.118Z,101521.88
2023-05-05T05:33:19.011Z,101545.03
2023-05-05T05:35:45.936Z,101568.69
2023-05-05T05:38:12.592Z,101564.81
2023-05-05T05:40:39.410Z,101552.75
2023-05-05T05:43:06.454Z,101530.06
2023-05-05T05:45:33.101Z,101567.22
2023-05-05T05:48:00.492Z,101558.28
2023-05-05T05:50:28.688Z,101573.34
2023-05-05T05:52:55.722Z,101558.75
2023-05-05T05:55:22.660Z,101544.63
2023-05-05T05:57:49.211Z,101569.97
2023-05-05T06:00:16.174Z,101565.84
2023-05-05T06:02:42.924Z,101568.13
2023-05-05T06:05:10.677Z,101588.19
2023-05-05T06:07:37.365Z,101573.41
2023-05-05T06:10:15.004Z,101568.22
2023-05-05T06:12:51.578Z,101592.59
2023-05-05T06:15:18.199Z,101540.25
2023-05-05T06:17:44.765Z,101608.28
2023-05-05T06:20:13.863Z,101579.41
2023-05-05T06:22:40.687Z,101570.00
2023-05-05T06:25:07.640Z,101590.78
2023-05-05T06:27:34.412Z,101608.78
2023-05-05T06:30:01.381Z,101577.44
2023-05-05T06:32:27.993Z,101591.03
2023-05-05T06:34:54.598Z,101569.78
2023-05-05T06:37:21.373Z,101599.34
2023-05-05T06:39:48.978Z,101598.78
2023-05-05T06:42:15.881Z,101615.16
2023-05-05T06:44:42.804Z,101577.59
2023-05-05T06:47:09.488Z,101595.72
2023-05-05T06:49:36.584Z,101617.50
2023-05-05T06:52:03.395Z,101614.09
2023-05-05T06:54:30.013Z,101619.16
2023-05-05T06:56:59.335Z,101619.44
2023-05-05T06:59:26.875Z,101631.72
2023-05-05T07:01:53.549Z,101628.28
2023-05-05T07:04:21.383Z,101601.53
2023-05-05T07:06:48.135Z,101624.00
2023-05-05T07:09:16.884Z,101606.28
2023-05-05T07:11:43.751Z,101610.31
2023-05-05T07:14:10.479Z,101596.59
2023-05-05T07:16:37.373Z,101609.38
2023-05-05T07:19:06.929Z,101614.72
2023-05-05T07:21:37.128Z,101624.91
2023-05-05T07:24:04.148Z,101632.84
2023-05-05T07:26:31.082Z,101613.59
2023-05-05T07:28:59.104Z,101588.00
2023-05-05T07:31:26.748Z,101600.31
2023-05-05T07:33:53.697Z,101614.44
2023-05-05T07:36:20.719Z,101625.31
2023-05-05T07:38:47.275Z,101633.59
2023-05-05T07:41:14.004Z,101633.34
2023-05-05T07:43:44.661Z,101631.28
2023-05-05T07:46:12.076Z,101632.47
2023-05-05T07:48:41.515Z,101632.88
2023-05-05T07:51:08.690Z,101599.88
2023-05-05T07:53:35.423Z,101625.53
2023-05-05T07:56:02.175Z,101632.03
2023-05-05T07:58:28.907Z,101621.06
2023-05-05T08:00:55.528Z,101626.66
2023-05-05T08:03:24.498Z,101643.13
2023-05-05T08:05:54.547Z,101639.38
2023-05-05T08:08:24.921Z,101620.88
2023-05-05T08:10:53.280Z,101599.06
2023-05-05T08:13:20.688Z,101601.47
2023-05-05T08:15:47.816Z,101645.56
2023-05-05T08:18:14.960Z,101614.06
2023-05-05T08:20:41.808Z,101614.25
2023-05-05T08:23:08.560Z,101638.63
2023-05-05T08:25:35.111Z,101629.56
2023-05-05T08:28:01.805Z,101634.19
2023-05-05T08:30:28.720Z,101582.94
2023-05-05T08:32:55.611Z,101604.06
2023-05-05T08:35:22.465Z,101631.94
2023-05-05T08:37:51.149Z,101631.16
2023-05-05T08:40:17.841Z,101618.91
2023-05-05T08:42:47.364Z,101638.38
2023-05-05T08:45:14.441Z,101641.19
2023-05-05T08:47:43.117Z,101647.59
2023-05-05T08:50:11.358Z,101631.69
2023-05-05T08:52:44.335Z,101602.31
2023-05-05T08:55:25.565Z,101639.63
2023-05-05T08:58:04.183Z,101615.94
2023-05-05T09:00:31.567Z,101586.59
2023-05-05T09:03:00.131Z,101632.03
2023-05-05T09:05:27.345Z,101624.34
2023-05-05T09:07:54.015Z,101639.50
2023-05-05T09:10:21.009Z,101641.66
2023-05-05T09:12:49.607Z,101604.03
2023-05-05T09:15:16.544Z,101629.88
2023-05-05T09:17:43.975Z,101621.28
2023-05-05T09:20:12.463Z,101628.28
2023-05-05T09:22:47.264Z,101638.00
2023-05-05T09:25:18.438Z,101604.81
2023-05-05T09:27:47.520Z,101619.91
2023-05-05T09:30:25.042Z,101639.00
2023-05-05T09:32:54.432Z,101627.53
2023-05-05T09:35:22.608Z,101633.00
2023-05-05T09:37:49.646Z,101615.69
2023-05-05T09:40:18.176Z,101642.97
2023-05-05T09:42:45.207Z,101617.47
2023-05-05T09:45:17.987Z,101648.00
2023-05-05T09:47:46.441Z,101652.47
2023-05-05T09:50:18.981Z,101631.94
2023-05-05T09:53:03.121Z,101656.66
2023-05-05T09:55:33.139Z,101608.66
2023-05-05T09:58:29.880Z,101650.78
2023-05-05T10:00:58.720Z,101636.38
2023-05-05T10:03:26.075Z,101633.50
2023-05-05T10:05:55.837Z,101644.34
2023-05-05T10:08:28.035Z,101651.63
2023-05-05T10:10:56.273Z,101650.88
2023-05-05T10:13:24.379Z,101622.47
2023-05-05T10:15:56.189Z,101641.53
2023-05-05T10:18:27.518Z,101631.06
2023-05-05T10:20:57.500Z,101644.53
2023-05-05T10:23:29.106Z,101634.13
2023-05-05T10:26:17.102Z,101642.38
2023-05-05T10:28:56.532Z,101642.97
2023-05-05T10:31:53.016Z,101646.94
2023-05-05T10:34:58.302Z,101649.88
2023-05-05T10:37:26.681Z,101619.34
2023-05-05T10:39:55.997Z,101621.84
2023-05-05T10:42:23.676Z,101636.63
2023-05-05T10:44:51.498Z,101615.03
2023-05-05T10:47:20.189Z,101626.19
2023-05-05T10:50:21.914Z,101622.13
2023-05-05T10:53:12.811Z,101628.81
2023-05-05T10:55:48.345Z,101617.69
2023-05-05T10:58:59.121Z,101583.47
2023-05-05T11:01:34.682Z,101573.72
2023-05-05T11:04:24.363Z,101603.47
2023-05-05T11:07:13.399Z,101596.59
2023-05-05T11:09:58.579Z,101594.06
2023-05-05T11:12:25.390Z,101583.88
2023-05-05T11:15:26.288Z,101601.63
2023-05-05T11:17:54.686Z,101578.78
2023-05-05T11:20:36.966Z,101592.69
2023-05-05T11:23:21.883Z,101581.94
2023-05-05T11:25:51.497Z,101553.69
2023-05-05T11:28:21.025Z,101588.06
2023-05-05T11:30:57.780Z,101588.59
2023-05-05T11:33:31.502Z,101586.16
2023-05-05T11:35:59.849Z,101590.78
2023-05-05T11:38:37.321Z,101575.81
2023-05-05T11:41:18.273Z,101565.06
2023-05-05T11:43:45.181Z,101567.97
2023-05-05T11:46:16.856Z,101545.53
2023-05-05T11:48:48.124Z,101532.22
2023-05-05T11:51:16.549Z,101574.63
2023-05-05T11:53:44.897Z,101569.44
2023-05-05T11:56:14.518Z,101559.53
2023-05-05T11:58:42.115Z,101571.50
2023-05-05T12:01:08.996Z,101571.75
2023-05-05T12:03:39.560Z,101553.84
2023-05-05T12:06:07.562Z,101571.88
2023-05-05T12:08:38.221Z,101570.03
2023-05-05T12:11:09.686Z,101568.53
2023-05-05T14:59:39.900Z,101687.81
2023-05-05T15:02:06.775Z,101676.31
2023-05-05T15:04:33.396Z,101662.72
2023-05-05T15:07:00.147Z,101683.31
2023-05-05T15:09:27.223Z,101659.63
2023-05-05T15:11:53.867Z,101671.63
2023-05-05T15:14:20.579Z,101687.47
2023-05-05T15:16:47.393Z,101678.47
2023-05-05T15:19:13.995Z,101664.38
2023-05-05T15:21:40.860Z,101674.88
2023-05-05T15:24:07.669Z,101683.63
2023-05-05T15:26:34.276Z,101677.84
2023-05-05T15:29:00.884Z,101664.25
2023-05-05T15:31:27.605Z,101662.25
2023-05-05T15:33:54.286Z,101684.00
2023-05-05T15:36:22.759Z,101665.19
2023-05-05T15:38:49.494Z,101669.91
2023-05-05T15:41:16.384Z,101661.06
2023-05-05T15:43:43.113Z,101663.44
2023-05-05T15:46:09.672Z,101664.56
2023-05-05T15:48:36.312Z,101654.19
2023-05-05T15:51:03.003Z,101648.84
2023-05-05T15:53:29.679Z,101643.78
2023-05-05T15:55:56.277Z,101652.97
2023-05-05T15:58:23.262Z,101645.63
2023-05-05T16:00:50.025Z,101623.16
2023-05-05T16:03:16.852Z,101622.25
2023-05-05T16:05:43.536Z,101633.19
2023-05-05T16:08:10.943Z,101600.78
2023-05-05T16:10:37.729Z,101624.41
2023-05-05T16:13:04.548Z,101624.84
2023-05-05T16:15:31.408Z,101599.84
2023-05-05T16:17:58.044Z,101620.28
2023-05-05T16:20:24.715Z,101608.41
2023-05-05T16:22:51.388Z,101598.53
2023-05-05T16:25:19.822Z,101596.53
2023-05-05T16:27:46.693Z,101579.78
2023-05-05T16:30:15.412Z,101577.59
2023-05-05T16:32:42.267Z,101562.97
2023-05-05T16:35:09.457Z,101543.00
2023-05-05T16:37:36.615Z,101546.75
2023-05-05T16:40:05.464Z,101524.59
2023-05-05T16:42:32.267Z,101518.28
2023-05-05T16:44:58.824Z,101515.38
2023-05-05T16:47:25.558Z,101518.91
2023-05-05T16:49:52.664Z,101523.19
2023-05-05T16:52:19.288Z,101512.94
2023-05-05T16:54:46.507Z,101526.19
2023-05-05T16:57:13.739Z,101548.75
2023-05-05T16:59:41.873Z,101556.47
2023-05-05T17:02:08.707Z,101588.44
2023-05-05T17:04:35.460Z,101598.53
2023-05-05T17:07:02.101Z,101612.53
2023-05-05T17:09:28.673Z,101616.03
2023-05-05T17:11:55.465Z,101626.81
2023-05-05T17:14:22.179Z,101637.81
2023-05-05T17:16:48.821Z,101638.66
2023-05-05T17:19:15.547Z,101635.06
2023-05-05T17:21:45.638Z,101633.97
2023-05-05T17:24:12.306Z,101648.03
2023-05-05T17:26:39.814Z,101603.16
2023-05-05T17:29:06.440Z,101607.28
2023-05-05T17:31:33.201Z,101587.56
2023-05-05T17:33:59.881Z,101612.66
2023-05-05T17:36:26.433Z,101630.91
2023-05-05T17:38:53.173Z,101624.88
2023-05-05T17:41:19.852Z,101624.13
2023-05-05T17:43:46.482Z,101627.22
2023-05-05T17:46:13.187Z,101618.16
2023-05-05T17:48:40.032Z,101630.78
2023-05-05T17:51:06.718Z,101624.06
2023-05-05T17:53:33.451Z,101638.13
2023-05-05T17:56:00.304Z,101649.50
2023-05-05T17:58:27.336Z,101635.59
2023-05-05T18:00:54.056Z,101610.13
2023-05-05T18:03:20.943Z,101628.72
2023-05-05T18:05:47.792Z,101612.22
2023-05-05T18:08:14.444Z,101666.88
2023-05-05T18:10:41.277Z,101667.06
2023-05-05T18:13:08.013Z,101652.75
2023-05-05T18:15:34.712Z,101669.63
2023-05-05T18:18:01.567Z,101678.50
2023-05-05T18:20:28.320Z,101654.91
2023-05-05T18:22:55.003Z,101652.97
2023-05-05T18:25:21.836Z,101649.72
2023-05-05T18:27:48.473Z,101668.00
2023-05-05T18:30:15.651Z,101614.97
2023-05-05T18:32:42.514Z,101684.06
2023-05-05T18:35:09.881Z,101665.25
2023-05-05T18:37:36.828Z,101661.91
2023-05-05T18:40:03.790Z,101679.91
2023-05-05T18:42:30.489Z,101652.53
2023-05-05T18:44:57.060Z,101618.16
2023-05-05T18:47:23.810Z,101674.16
2023-05-05T18:49:50.500Z,101667.13
2023-05-05T18:52:17.179Z,101672.34
2023-05-05T18:54:43.897Z,101683.59
2023-05-05T18:57:10.725Z,101674.91
2023-05-05T18:59:37.433Z,101676.84
2023-05-05T19:02:04.251Z,101651.84
2023-05-05T19:04:32.228Z,101688.09
2023-05-05T19:07:00.125Z,101687.66
2023-05-05T19:09:27.628Z,101673.50
2023-05-05T19:11:54.325Z,101666.44
2023-05-05T19:14:22.179Z,101681.31
2023-05-05T19:16:48.958Z,101678.25
2023-05-05T19:19:15.745Z,101692.16
2023-05-05T19:21:42.447Z,101675.19
2023-05-05T19:24:10.108Z,101682.19
2023-05-05T19:26:37.053Z,101679.66
2023-05-05T19:29:03.706Z,101683.59
2023-05-05T19:31:31.401Z,101656.50
2023-05-05T19:34:00.880Z,101686.13
2023-05-05T19:36:28.019Z,101614.19
2023-05-05T19:38:56.056Z,101658.31
2023-05-05T19:41:22.886Z,101660.78
2023-05-05T19:43:50.060Z,101678.81
2023-05-05T19:46:19.592Z,101691.72
2023-05-05T19:48:46.587Z,101680.19
2023-05-05T19:51:14.008Z,101678.75
2023-05-05T19:53:42.863Z,101690.56
2023-05-05T19:56:10.343Z,101651.50
2023-05-05T19:58:56.710Z,101690.44
2023-05-05T20:01:23.818Z,101657.25
2023-05-05T20:03:51.370Z,101680.63
2023-05-05T20:06:18.598Z,101675.09
2023-05-05T20:08:45.311Z,101676.81
2023-05-05T20:11:12.410Z,101681.72
2023-05-05T20:13:39.165Z,101688.88
2023-05-05T20:16:06.616Z,101686.34
2023-05-05T20:18:33.682Z,101643.09
2023-05-05T20:21:01.876Z,101677.78
2023-05-05T20:23:28.680Z,101675.94
2023-05-05T20:25:56.018Z,101680.88
2023-05-05T20:28:23.098Z,101674.81
2023-05-05T20:30:49.823Z,101677.63
2023-05-05T20:33:16.461Z,101664.13
2023-05-05T20:35:43.183Z,101671.16
2023-05-05T20:38:09.879Z,101675.63
2023-05-05T20:40:36.840Z,101666.38
2023-05-05T20:43:03.650Z,101685.19
2023-05-05T20:45:31.780Z,101661.59
2023-05-05T20:47:58.777Z,101669.03
2023-05-05T20:50:25.873Z,101680.97
2023-05-05T20:52:52.603Z,101681.81
2023-05-05T20:55:19.263Z,101685.19
2023-05-05T20:57:46.273Z,101685.19
2023-05-05T21:00:13.126Z,101681.56
2023-05-05T21:02:40.214Z,101666.63
2023-05-05T21:05:07.304Z,101679.88
2023-05-05T21:07:34.334Z,101673.94
2023-05-05T21:10:02.501Z,101657.63
2023-05-05T21:12:30.153Z,101680.84
2023-05-05T21:14:58.908Z,101661.59
2023-05-05T21:17:26.872Z,101687.56
2023-05-05T21:19:53.811Z,101654.16
2023-05-05T21:22:20.973Z,101685.75
2023-05-05T21:24:48.460Z,101673.94
2023-05-05T21:27:15.621Z,101683.47
2023-05-05T21:29:42.280Z,101667.47
2023-05-05T21:32:10.348Z,101691.34
2023-05-05T21:34:38.044Z,101681.41
2023-05-05T21:37:06.142Z,101683.22
2023-05-05T21:39:33.274Z,101667.19
2023-05-05T21:42:01.032Z,101676.31
2023-05-05T21:44:28.393Z,101671.13
2023-05-05T21:46:55.688Z,101644.31
2023-05-05T21:49:23.094Z,101668.63
2023-05-05T21:51:50.250Z,101682.38
2023-05-05T21:54:16.976Z,101668.63
2023-05-05T21:56:43.747Z,101651.75
2023-05-05T21:59:11.053Z,101661.84
2023-05-05T22:01:37.851Z,101680.94
2023-05-05T22:04:04.777Z,101662.84
2023-05-05T22:06:32.506Z,101648.66
2023-05-05T22:08:59.122Z,101675.19
2023-05-05T22:11:25.962Z,101661.44
2023-05-05T22:13:52.631Z,101660.47
2023-05-05T22:16:19.434Z,101679.28
2023-05-05T22:18:46.275Z,101674.78
2023-05-05T22:21:12.991Z,101668.63
2023-05-05T22:23:41.903Z,101670.81
2023-05-05T22:26:09.809Z,101681.22
2023-05-05T22:28:36.578Z,101679.53
2023-05-05T22:31:04.669Z,101685.59
2023-05-05T22:33:31.509Z,101612.09
2023-05-05T22:35:58.296Z,101681.50
2023-05-05T22:38:24.925Z,101679.81
2023-05-05T22:40:52.174Z,101655.34
2023-05-05T22:43:19.281Z,101684.44
2023-05-05T22:45:46.119Z,101670.38
2023-05-05T22:48:12.834Z,101686.66
2023-05-05T22:50:39.649Z,101658.13
2023-05-05T22:53:07.489Z,101672.31
2023-05-05T22:55:34.386Z,101676.91
2023-05-05T22:58:01.446Z,101662.88
2023-05-05T23:00:28.332Z,101674.66
2023-05-05T23:02:55.271Z,101675.50
2023-05-05T23:05:22.105Z,101680.31
2023-05-05T23:07:48.916Z,101692.09
2023-05-05T23:10:15.610Z,101688.59
2023-05-05T23:12:42.384Z,101669.06
2023-05-05T23:15:09.986Z,101683.13
2023-05-05T23:17:36.990Z,101694.22
2023-05-05T23:20:04.338Z,101673.28
2023-05-05T23:22:30.920Z,101676.66
2023-05-05T23:24:57.611Z,101680.31
2023-05-05T23:27:24.262Z,101652.47
2023-05-05T23:29:50.830Z,101682.00
2023-05-05T23:32:17.736Z,101652.34
2023-05-05T23:34:44.361Z,101671.84
2023-05-05T23:37:14.300Z,101693.06
2023-05-05T23:39:41.932Z,101687.16
2023-05-05T23:42:08.768Z,101679.16
2023-05-05T23:44:35.393Z,101693.50
2023-05-05T23:47:02.182Z,101665.91
2023-05-05T23:49:28.806Z,101691.50
2023-05-05T23:51:55.760Z,101688.13
2023-05-05T23:54:22.438Z,101685.44
2023-05-05T23:56:49.049Z,101678.00
2023-05-05T23:59:15.708Z,101667.16
